KFGX

Fleming-Mason Airport

Flemingsburg, Kentucky, USA
METAR KFGX 172055Z AUTO 17005KT 10SM OVC050 06/02 A3013 RMK AO2 T00600017
Observed Flight Rules
Dec-17 @ 20:55 UTC (32 minutes ago) Visual Flight Rules
Wind Visibility Clouds
170° at 5 knots 10 miles
  • Overcast at 5,000' AGL
Temperatures Readings
Current 6°C / 43°F
Dewpoint 2°C / 36°F
Humidity 76%
Altimeter 30.13" Hg
Pressure 1020 hPa
Elevation 278
METAR KFGX 172055Z AUTO 17005KT 10SM OVC050 06/02 A3013 RMK AO2 T00600017
Observed Flight Rules
Dec-17 @ 20:55 UTC
(32 minutes ago)
VFR
Wind Visibility
170° at 5 knots 10 miles
Clouds
  • Overcast at 5,000' AGL
Temperature Dewpoint
6°C / 43°F 2°C / 36°F
Humidity Altimeter Pressure
76% 30.13" Hg 1020 hPa